sensor_id;sensor_type;location;lat;lon;timestamp;P1;durP1;ratioP1;P2;durP2;ratioP2
53753;SDS011;39667;52.274;20.964;2022-12-10T00:02:10;68.10;;;43.20;;
53753;SDS011;39667;52.274;20.964;2022-12-10T00:04:39;60.60;;;40.90;;
53753;SDS011;39667;52.274;20.964;2022-12-10T00:07:10;54.40;;;41.50;;
53753;SDS011;39667;52.274;20.964;2022-12-10T00:09:36;60.10;;;43.80;;
53753;SDS011;39667;52.274;20.964;2022-12-10T00:12:03;57.00;;;41.00;;
53753;SDS011;39667;52.274;20.964;2022-12-10T00:14:30;56.60;;;42.10;;
53753;SDS011;39667;52.274;20.964;2022-12-10T00:16:57;63.10;;;44.20;;
53753;SDS011;39667;52.274;20.964;2022-12-10T00:19:23;59.30;;;43.20;;
53753;SDS011;39667;52.274;20.964;2022-12-10T00:21:49;61.40;;;43.30;;
53753;SDS011;39667;52.274;20.964;2022-12-10T00:24:15;61.20;;;44.50;;
53753;SDS011;39667;52.274;20.964;2022-12-10T00:26:41;60.00;;;44.80;;
53753;SDS011;39667;52.274;20.964;2022-12-10T00:29:09;67.20;;;44.20;;
53753;SDS011;39667;52.274;20.964;2022-12-10T00:31:37;60.80;;;40.60;;
53753;SDS011;39667;52.274;20.964;2022-12-10T00:34:05;57.40;;;42.00;;
53753;SDS011;39667;52.274;20.964;2022-12-10T00:36:35;59.00;;;41.90;;
53753;SDS011;39667;52.274;20.964;2022-12-10T00:39:04;57.30;;;42.70;;
53753;SDS011;39667;52.274;20.964;2022-12-10T00:41:31;60.80;;;42.60;;
53753;SDS011;39667;52.274;20.964;2022-12-10T00:43:57;62.60;;;43.20;;
53753;SDS011;39667;52.274;20.964;2022-12-10T00:46:24;59.50;;;42.40;;
53753;SDS011;39667;52.274;20.964;2022-12-10T00:48:51;61.50;;;43.50;;
53753;SDS011;39667;52.274;20.964;2022-12-10T00:51:19;59.30;;;43.00;;
53753;SDS011;39667;52.274;20.964;2022-12-10T00:53:48;59.70;;;43.90;;
53753;SDS011;39667;52.274;20.964;2022-12-10T00:56:17;63.20;;;42.70;;
53753;SDS011;39667;52.274;20.964;2022-12-10T00:58:48;59.50;;;41.70;;
53753;SDS011;39667;52.274;20.964;2022-12-10T01:01:23;61.30;;;42.60;;
53753;SDS011;39667;52.274;20.964;2022-12-10T01:04:02;59.70;;;43.10;;
53753;SDS011;39667;52.274;20.964;2022-12-10T01:06:35;69.80;;;42.40;;
53753;SDS011;39667;52.274;20.964;2022-12-10T01:09:06;62.90;;;43.00;;
53753;SDS011;39667;52.274;20.964;2022-12-10T01:11:36;66.00;;;44.60;;
53753;SDS011;39667;52.274;20.964;2022-12-10T01:14:07;60.40;;;43.70;;
53753;SDS011;39667;52.274;20.964;2022-12-10T01:16:35;57.70;;;43.00;;
53753;SDS011;39667;52.274;20.964;2022-12-10T01:19:02;64.50;;;44.80;;
53753;SDS011;39667;52.274;20.964;2022-12-10T01:21:28;60.50;;;42.90;;
53753;SDS011;39667;52.274;20.964;2022-12-10T01:23:57;62.20;;;43.10;;
53753;SDS011;39667;52.274;20.964;2022-12-10T01:26:26;59.30;;;41.50;;
53753;SDS011;39667;52.274;20.964;2022-12-10T01:28:55;56.20;;;40.50;;
53753;SDS011;39667;52.274;20.964;2022-12-10T01:31:24;58.50;;;41.30;;
53753;SDS011;39667;52.274;20.964;2022-12-10T01:33:53;60.00;;;41.70;;
53753;SDS011;39667;52.274;20.964;2022-12-10T01:36:23;54.70;;;41.00;;
53753;SDS011;39667;52.274;20.964;2022-12-10T01:38:51;61.50;;;42.90;;
53753;SDS011;39667;52.274;20.964;2022-12-10T01:41:37;55.70;;;40.60;;
53753;SDS011;39667;52.274;20.964;2022-12-10T01:46:43;58.80;;;43.30;;
53753;SDS011;39667;52.274;20.964;2022-12-10T01:49:12;60.40;;;42.20;;
53753;SDS011;39667;52.274;20.964;2022-12-10T01:51:43;62.40;;;43.20;;
53753;SDS011;39667;52.274;20.964;2022-12-10T01:54:13;59.80;;;41.20;;
53753;SDS011;39667;52.274;20.964;2022-12-10T01:56:43;58.00;;;41.20;;
53753;SDS011;39667;52.274;20.964;2022-12-10T01:59:11;58.50;;;40.40;;
53753;SDS011;39667;52.274;20.964;2022-12-10T02:12:31;58.40;;;41.00;;
53753;SDS011;39667;52.274;20.964;2022-12-10T02:17:46;57.50;;;40.80;;
53753;SDS011;39667;52.274;20.964;2022-12-10T02:20:18;61.50;;;41.00;;
53753;SDS011;39667;52.274;20.964;2022-12-10T02:23:01;55.30;;;38.80;;
53753;SDS011;39667;52.274;20.964;2022-12-10T02:31:10;61.80;;;41.50;;
53753;SDS011;39667;52.274;20.964;2022-12-10T02:33:42;62.70;;;41.40;;
53753;SDS011;39667;52.274;20.964;2022-12-10T02:36:12;57.00;;;40.20;;
53753;SDS011;39667;52.274;20.964;2022-12-10T02:38:41;58.60;;;38.90;;
53753;SDS011;39667;52.274;20.964;2022-12-10T02:41:12;56.70;;;39.40;;
53753;SDS011;39667;52.274;20.964;2022-12-10T02:43:43;55.30;;;39.50;;
53753;SDS011;39667;52.274;20.964;2022-12-10T02:46:13;56.10;;;37.00;;
53753;SDS011;39667;52.274;20.964;2022-12-10T02:48:40;52.90;;;35.40;;
53753;SDS011;39667;52.274;20.964;2022-12-10T02:51:07;50.70;;;36.40;;
53753;SDS011;39667;52.274;20.964;2022-12-10T02:53:33;49.50;;;36.10;;
53753;SDS011;39667;52.274;20.964;2022-12-10T03:01:52;51.30;;;35.50;;
53753;SDS011;39667;52.274;20.964;2022-12-10T03:04:22;50.90;;;36.00;;
53753;SDS011;39667;52.274;20.964;2022-12-10T03:07:35;57.20;;;35.40;;
53753;SDS011;39667;52.274;20.964;2022-12-10T03:13:29;53.90;;;35.90;;
53753;SDS011;39667;52.274;20.964;2022-12-10T03:16:02;52.10;;;33.90;;
53753;SDS011;39667;52.274;20.964;2022-12-10T03:18:30;50.40;;;34.80;;
53753;SDS011;39667;52.274;20.964;2022-12-10T03:21:01;52.70;;;35.20;;
53753;SDS011;39667;52.274;20.964;2022-12-10T03:23:32;48.30;;;34.80;;
53753;SDS011;39667;52.274;20.964;2022-12-10T03:26:01;46.50;;;32.70;;
53753;SDS011;39667;52.274;20.964;2022-12-10T03:28:30;46.40;;;33.30;;
53753;SDS011;39667;52.274;20.964;2022-12-10T03:31:01;47.60;;;33.40;;
53753;SDS011;39667;52.274;20.964;2022-12-10T03:33:29;48.90;;;33.00;;
53753;SDS011;39667;52.274;20.964;2022-12-10T03:35:56;45.50;;;31.10;;
53753;SDS011;39667;52.274;20.964;2022-12-10T03:38:22;50.00;;;32.90;;
53753;SDS011;39667;52.274;20.964;2022-12-10T03:40:48;47.80;;;32.40;;
53753;SDS011;39667;52.274;20.964;2022-12-10T03:43:14;42.70;;;32.80;;
53753;SDS011;39667;52.274;20.964;2022-12-10T03:45:41;46.60;;;34.20;;
53753;SDS011;39667;52.274;20.964;2022-12-10T03:48:07;48.60;;;34.80;;
53753;SDS011;39667;52.274;20.964;2022-12-10T03:50:33;52.00;;;36.50;;
53753;SDS011;39667;52.274;20.964;2022-12-10T03:53:00;50.20;;;37.00;;
53753;SDS011;39667;52.274;20.964;2022-12-10T03:55:27;52.50;;;36.90;;
53753;SDS011;39667;52.274;20.964;2022-12-10T03:57:54;53.10;;;37.70;;
53753;SDS011;39667;52.274;20.964;2022-12-10T04:00:20;54.50;;;37.70;;
53753;SDS011;39667;52.274;20.964;2022-12-10T04:02:46;51.70;;;38.40;;
53753;SDS011;39667;52.274;20.964;2022-12-10T04:05:13;59.00;;;39.30;;
53753;SDS011;39667;52.274;20.964;2022-12-10T04:07:39;52.20;;;35.40;;
53753;SDS011;39667;52.274;20.964;2022-12-10T04:10:06;54.00;;;36.80;;
53753;SDS011;39667;52.274;20.964;2022-12-10T04:12:35;58.90;;;39.10;;
53753;SDS011;39667;52.274;20.964;2022-12-10T04:15:01;58.00;;;39.20;;
53753;SDS011;39667;52.274;20.964;2022-12-10T04:17:46;53.80;;;37.40;;
53753;SDS011;39667;52.274;20.964;2022-12-10T04:20:12;59.30;;;39.10;;
53753;SDS011;39667;52.274;20.964;2022-12-10T04:22:58;61.30;;;39.90;;
53753;SDS011;39667;52.274;20.964;2022-12-10T04:25:43;59.00;;;38.80;;
53753;SDS011;39667;52.274;20.964;2022-12-10T04:28:28;59.60;;;37.40;;
53753;SDS011;39667;52.274;20.964;2022-12-10T04:30:55;55.90;;;37.40;;
53753;SDS011;39667;52.274;20.964;2022-12-10T04:33:21;55.70;;;36.70;;
53753;SDS011;39667;52.274;20.964;2022-12-10T04:35:47;51.40;;;34.80;;
53753;SDS011;39667;52.274;20.964;2022-12-10T04:38:14;52.10;;;36.40;;
53753;SDS011;39667;52.274;20.964;2022-12-10T04:40:40;54.90;;;35.50;;
53753;SDS011;39667;52.274;20.964;2022-12-10T04:43:06;53.80;;;35.80;;
53753;SDS011;39667;52.274;20.964;2022-12-10T04:45:33;57.00;;;37.20;;
53753;SDS011;39667;52.274;20.964;2022-12-10T04:48:01;56.90;;;38.40;;
53753;SDS011;39667;52.274;20.964;2022-12-10T04:50:27;63.00;;;39.30;;
53753;SDS011;39667;52.274;20.964;2022-12-10T04:52:54;57.30;;;35.70;;
53753;SDS011;39667;52.274;20.964;2022-12-10T04:55:21;55.40;;;35.50;;
53753;SDS011;39667;52.274;20.964;2022-12-10T04:57:48;55.60;;;35.10;;
53753;SDS011;39667;52.274;20.964;2022-12-10T05:00:14;55.10;;;35.70;;
53753;SDS011;39667;52.274;20.964;2022-12-10T05:02:40;53.20;;;35.30;;
53753;SDS011;39667;52.274;20.964;2022-12-10T05:05:06;56.90;;;36.40;;
53753;SDS011;39667;52.274;20.964;2022-12-10T05:07:33;50.40;;;33.50;;
53753;SDS011;39667;52.274;20.964;2022-12-10T05:10:00;56.90;;;34.20;;
53753;SDS011;39667;52.274;20.964;2022-12-10T05:12:26;53.00;;;33.30;;
53753;SDS011;39667;52.274;20.964;2022-12-10T05:14:53;51.60;;;31.80;;
53753;SDS011;39667;52.274;20.964;2022-12-10T05:17:19;49.20;;;31.80;;
53753;SDS011;39667;52.274;20.964;2022-12-10T05:19:46;51.80;;;33.40;;
53753;SDS011;39667;52.274;20.964;2022-12-10T05:22:13;43.80;;;29.30;;
53753;SDS011;39667;52.274;20.964;2022-12-10T05:24:57;43.70;;;28.10;;
53753;SDS011;39667;52.274;20.964;2022-12-10T05:27:23;39.30;;;26.50;;
53753;SDS011;39667;52.274;20.964;2022-12-10T05:29:50;40.90;;;26.50;;
53753;SDS011;39667;52.274;20.964;2022-12-10T05:32:16;38.30;;;26.20;;
53753;SDS011;39667;52.274;20.964;2022-12-10T05:34:42;42.90;;;27.70;;
53753;SDS011;39667;52.274;20.964;2022-12-10T05:37:09;44.50;;;28.90;;
53753;SDS011;39667;52.274;20.964;2022-12-10T05:39:35;47.30;;;29.60;;
53753;SDS011;39667;52.274;20.964;2022-12-10T05:42:02;46.50;;;30.70;;
53753;SDS011;39667;52.274;20.964;2022-12-10T05:44:30;54.30;;;32.50;;
53753;SDS011;39667;52.274;20.964;2022-12-10T05:46:57;48.50;;;30.80;;
53753;SDS011;39667;52.274;20.964;2022-12-10T05:49:23;48.50;;;31.70;;
53753;SDS011;39667;52.274;20.964;2022-12-10T05:51:49;49.90;;;31.80;;
53753;SDS011;39667;52.274;20.964;2022-12-10T05:54:15;50.00;;;33.30;;
53753;SDS011;39667;52.274;20.964;2022-12-10T05:56:41;50.80;;;34.00;;
53753;SDS011;39667;52.274;20.964;2022-12-10T05:59:08;51.70;;;33.00;;
53753;SDS011;39667;52.274;20.964;2022-12-10T06:01:42;50.30;;;33.20;;
53753;SDS011;39667;52.274;20.964;2022-12-10T06:04:08;47.60;;;32.40;;
53753;SDS011;39667;52.274;20.964;2022-12-10T06:06:36;51.70;;;32.80;;
53753;SDS011;39667;52.274;20.964;2022-12-10T06:09:04;49.80;;;31.90;;
53753;SDS011;39667;52.274;20.964;2022-12-10T06:11:33;48.40;;;30.80;;
53753;SDS011;39667;52.274;20.964;2022-12-10T06:13:59;48.60;;;30.30;;
53753;SDS011;39667;52.274;20.964;2022-12-10T06:16:27;45.80;;;29.80;;
53753;SDS011;39667;52.274;20.964;2022-12-10T06:18:55;41.80;;;28.60;;
53753;SDS011;39667;52.274;20.964;2022-12-10T06:21:23;45.90;;;30.20;;
53753;SDS011;39667;52.274;20.964;2022-12-10T06:23:49;47.50;;;30.00;;
53753;SDS011;39667;52.274;20.964;2022-12-10T06:26:18;46.90;;;28.90;;
53753;SDS011;39667;52.274;20.964;2022-12-10T06:28:50;43.20;;;26.90;;
53753;SDS011;39667;52.274;20.964;2022-12-10T06:31:18;42.40;;;27.90;;
53753;SDS011;39667;52.274;20.964;2022-12-10T06:33:45;43.80;;;27.30;;
53753;SDS011;39667;52.274;20.964;2022-12-10T06:36:12;40.40;;;25.90;;
53753;SDS011;39667;52.274;20.964;2022-12-10T06:38:40;46.50;;;28.60;;
53753;SDS011;39667;52.274;20.964;2022-12-10T06:41:08;41.70;;;26.60;;
53753;SDS011;39667;52.274;20.964;2022-12-10T06:43:37;42.90;;;26.40;;
53753;SDS011;39667;52.274;20.964;2022-12-10T06:46:04;43.30;;;26.80;;
53753;SDS011;39667;52.274;20.964;2022-12-10T06:48:34;44.70;;;27.10;;
53753;SDS011;39667;52.274;20.964;2022-12-10T06:51:02;44.30;;;27.10;;
53753;SDS011;39667;52.274;20.964;2022-12-10T06:53:30;47.70;;;27.70;;
53753;SDS011;39667;52.274;20.964;2022-12-10T06:55:58;41.00;;;26.60;;
53753;SDS011;39667;52.274;20.964;2022-12-10T06:58:28;42.60;;;25.90;;
53753;SDS011;39667;52.274;20.964;2022-12-10T07:01:04;41.50;;;25.70;;
53753;SDS011;39667;52.274;20.964;2022-12-10T07:03:31;46.80;;;28.10;;
53753;SDS011;39667;52.274;20.964;2022-12-10T07:05:58;45.60;;;27.30;;
53753;SDS011;39667;52.274;20.964;2022-12-10T07:08:26;42.50;;;25.90;;
53753;SDS011;39667;52.274;20.964;2022-12-10T07:10:52;41.50;;;25.30;;
53753;SDS011;39667;52.274;20.964;2022-12-10T07:13:18;48.10;;;26.50;;
53753;SDS011;39667;52.274;20.964;2022-12-10T07:15:45;44.10;;;26.60;;
53753;SDS011;39667;52.274;20.964;2022-12-10T07:18:11;46.90;;;28.40;;
53753;SDS011;39667;52.274;20.964;2022-12-10T07:20:37;46.00;;;28.10;;
53753;SDS011;39667;52.274;20.964;2022-12-10T07:23:05;44.00;;;27.40;;
53753;SDS011;39667;52.274;20.964;2022-12-10T07:25:32;45.10;;;27.20;;
53753;SDS011;39667;52.274;20.964;2022-12-10T07:27:59;43.80;;;26.00;;
53753;SDS011;39667;52.274;20.964;2022-12-10T07:30:25;43.70;;;25.90;;
53753;SDS011;39667;52.274;20.964;2022-12-10T07:32:53;42.30;;;27.80;;
53753;SDS011;39667;52.274;20.964;2022-12-10T07:35:19;46.90;;;28.30;;
53753;SDS011;39667;52.274;20.964;2022-12-10T07:37:46;46.80;;;28.70;;
53753;SDS011;39667;52.274;20.964;2022-12-10T07:40:14;42.10;;;26.80;;
53753;SDS011;39667;52.274;20.964;2022-12-10T07:42:41;40.60;;;27.10;;
53753;SDS011;39667;52.274;20.964;2022-12-10T07:45:07;46.30;;;28.00;;
53753;SDS011;39667;52.274;20.964;2022-12-10T07:47:35;43.60;;;26.80;;
53753;SDS011;39667;52.274;20.964;2022-12-10T07:50:03;41.40;;;26.90;;
53753;SDS011;39667;52.274;20.964;2022-12-10T07:52:29;40.00;;;26.60;;
53753;SDS011;39667;52.274;20.964;2022-12-10T07:54:56;39.90;;;26.40;;
53753;SDS011;39667;52.274;20.964;2022-12-10T07:57:23;46.60;;;29.60;;
53753;SDS011;39667;52.274;20.964;2022-12-10T07:59:51;45.00;;;29.00;;
53753;SDS011;39667;52.274;20.964;2022-12-10T08:02:17;46.60;;;27.80;;
53753;SDS011;39667;52.274;20.964;2022-12-10T08:04:43;38.00;;;26.70;;
53753;SDS011;39667;52.274;20.964;2022-12-10T08:07:09;39.80;;;26.60;;
53753;SDS011;39667;52.274;20.964;2022-12-10T08:09:35;41.10;;;26.60;;
53753;SDS011;39667;52.274;20.964;2022-12-10T08:12:02;39.20;;;26.90;;
53753;SDS011;39667;52.274;20.964;2022-12-10T08:14:28;39.80;;;25.10;;
53753;SDS011;39667;52.274;20.964;2022-12-10T08:16:56;38.40;;;24.20;;
53753;SDS011;39667;52.274;20.964;2022-12-10T08:19:22;38.80;;;25.20;;
53753;SDS011;39667;52.274;20.964;2022-12-10T08:21:56;36.90;;;24.00;;
53753;SDS011;39667;52.274;20.964;2022-12-10T08:24:22;39.70;;;25.10;;
53753;SDS011;39667;52.274;20.964;2022-12-10T08:26:49;38.90;;;23.50;;
53753;SDS011;39667;52.274;20.964;2022-12-10T08:29:16;37.20;;;24.20;;
53753;SDS011;39667;52.274;20.964;2022-12-10T08:31:42;33.90;;;22.60;;
53753;SDS011;39667;52.274;20.964;2022-12-10T08:34:12;37.40;;;22.90;;
53753;SDS011;39667;52.274;20.964;2022-12-10T08:36:40;34.70;;;21.40;;
53753;SDS011;39667;52.274;20.964;2022-12-10T08:39:07;33.00;;;21.90;;
53753;SDS011;39667;52.274;20.964;2022-12-10T08:41:36;33.30;;;20.90;;
53753;SDS011;39667;52.274;20.964;2022-12-10T08:44:02;31.40;;;20.20;;
53753;SDS011;39667;52.274;20.964;2022-12-10T08:46:28;31.40;;;21.30;;
53753;SDS011;39667;52.274;20.964;2022-12-10T08:48:54;32.20;;;21.50;;
53753;SDS011;39667;52.274;20.964;2022-12-10T08:51:20;31.50;;;21.00;;
53753;SDS011;39667;52.274;20.964;2022-12-10T08:53:47;30.30;;;20.80;;
53753;SDS011;39667;52.274;20.964;2022-12-10T08:56:14;30.50;;;20.40;;
53753;SDS011;39667;52.274;20.964;2022-12-10T08:58:41;33.70;;;21.00;;
53753;SDS011;39667;52.274;20.964;2022-12-10T09:01:08;34.00;;;23.10;;
53753;SDS011;39667;52.274;20.964;2022-12-10T09:03:37;35.00;;;24.00;;
53753;SDS011;39667;52.274;20.964;2022-12-10T09:06:05;33.70;;;21.70;;
53753;SDS011;39667;52.274;20.964;2022-12-10T09:08:33;32.90;;;20.50;;
53753;SDS011;39667;52.274;20.964;2022-12-10T09:11:11;32.60;;;21.90;;
53753;SDS011;39667;52.274;20.964;2022-12-10T09:13:40;30.40;;;21.00;;
53753;SDS011;39667;52.274;20.964;2022-12-10T09:16:07;34.20;;;22.50;;
53753;SDS011;39667;52.274;20.964;2022-12-10T09:18:35;31.70;;;21.30;;
53753;SDS011;39667;52.274;20.964;2022-12-10T09:21:09;33.80;;;22.80;;
53753;SDS011;39667;52.274;20.964;2022-12-10T09:23:39;33.20;;;21.40;;
53753;SDS011;39667;52.274;20.964;2022-12-10T09:26:11;30.50;;;20.20;;
53753;SDS011;39667;52.274;20.964;2022-12-10T09:28:40;34.60;;;21.50;;
53753;SDS011;39667;52.274;20.964;2022-12-10T09:31:08;31.70;;;19.80;;
53753;SDS011;39667;52.274;20.964;2022-12-10T09:33:43;28.70;;;19.50;;
53753;SDS011;39667;52.274;20.964;2022-12-10T09:36:10;30.90;;;20.30;;
53753;SDS011;39667;52.274;20.964;2022-12-10T09:38:38;31.10;;;21.20;;
53753;SDS011;39667;52.274;20.964;2022-12-10T09:44:31;30.70;;;21.40;;
53753;SDS011;39667;52.274;20.964;2022-12-10T09:47:18;33.00;;;21.40;;
53753;SDS011;39667;52.274;20.964;2022-12-10T09:52:16;36.00;;;23.30;;
53753;SDS011;39667;52.274;20.964;2022-12-10T09:54:53;36.00;;;22.10;;
53753;SDS011;39667;52.274;20.964;2022-12-10T09:57:38;37.80;;;22.70;;
53753;SDS011;39667;52.274;20.964;2022-12-10T10:05:34;34.60;;;21.30;;
53753;SDS011;39667;52.274;20.964;2022-12-10T10:08:05;36.30;;;23.80;;
53753;SDS011;39667;52.274;20.964;2022-12-10T10:10:39;36.30;;;22.60;;
53753;SDS011;39667;52.274;20.964;2022-12-10T10:15:34;34.80;;;23.40;;
53753;SDS011;39667;52.274;20.964;2022-12-10T10:20:55;32.60;;;20.60;;
53753;SDS011;39667;52.274;20.964;2022-12-10T10:23:23;33.10;;;22.50;;
53753;SDS011;39667;52.274;20.964;2022-12-10T10:25:49;33.20;;;21.50;;
53753;SDS011;39667;52.274;20.964;2022-12-10T10:28:19;33.10;;;22.30;;
53753;SDS011;39667;52.274;20.964;2022-12-10T10:30:48;31.60;;;21.80;;
53753;SDS011;39667;52.274;20.964;2022-12-10T10:33:17;35.40;;;21.40;;
53753;SDS011;39667;52.274;20.964;2022-12-10T10:35:45;34.00;;;22.90;;
53753;SDS011;39667;52.274;20.964;2022-12-10T10:38:16;31.80;;;21.30;;
53753;SDS011;39667;52.274;20.964;2022-12-10T10:40:48;35.80;;;23.20;;
53753;SDS011;39667;52.274;20.964;2022-12-10T10:43:22;37.00;;;22.80;;
53753;SDS011;39667;52.274;20.964;2022-12-10T10:45:56;32.70;;;22.90;;
53753;SDS011;39667;52.274;20.964;2022-12-10T10:48:30;33.60;;;22.40;;
53753;SDS011;39667;52.274;20.964;2022-12-10T10:53:40;36.30;;;22.70;;
53753;SDS011;39667;52.274;20.964;2022-12-10T10:56:14;33.40;;;22.30;;
53753;SDS011;39667;52.274;20.964;2022-12-10T11:01:47;35.30;;;23.90;;
53753;SDS011;39667;52.274;20.964;2022-12-10T11:04:16;35.40;;;23.50;;
53753;SDS011;39667;52.274;20.964;2022-12-10T11:06:47;34.90;;;23.10;;
53753;SDS011;39667;52.274;20.964;2022-12-10T11:09:20;33.00;;;22.40;;
53753;SDS011;39667;52.274;20.964;2022-12-10T11:11:52;39.30;;;24.60;;
53753;SDS011;39667;52.274;20.964;2022-12-10T11:14:30;35.50;;;23.00;;
53753;SDS011;39667;52.274;20.964;2022-12-10T11:19:44;39.30;;;24.40;;
53753;SDS011;39667;52.274;20.964;2022-12-10T11:22:21;36.90;;;22.30;;
53753;SDS011;39667;52.274;20.964;2022-12-10T11:24:52;34.00;;;22.00;;
53753;SDS011;39667;52.274;20.964;2022-12-10T11:30:03;38.30;;;22.70;;
53753;SDS011;39667;52.274;20.964;2022-12-10T11:42:04;37.90;;;22.80;;
53753;SDS011;39667;52.274;20.964;2022-12-10T11:44:57;38.10;;;23.00;;
53753;SDS011;39667;52.274;20.964;2022-12-10T11:47:38;40.00;;;24.00;;
53753;SDS011;39667;52.274;20.964;2022-12-10T11:53:45;34.70;;;21.30;;
53753;SDS011;39667;52.274;20.964;2022-12-10T11:56:18;37.60;;;21.90;;
53753;SDS011;39667;52.274;20.964;2022-12-10T11:59:02;35.00;;;22.20;;
53753;SDS011;39667;52.274;20.964;2022-12-10T12:15:40;37.10;;;22.90;;
53753;SDS011;39667;52.274;20.964;2022-12-10T12:18:17;38.80;;;24.30;;
53753;SDS011;39667;52.274;20.964;2022-12-10T12:21:03;39.00;;;23.00;;
53753;SDS011;39667;52.274;20.964;2022-12-10T12:23:45;39.90;;;23.30;;
53753;SDS011;39667;52.274;20.964;2022-12-10T12:29:08;39.90;;;23.30;;
53753;SDS011;39667;52.274;20.964;2022-12-10T12:32:20;35.20;;;21.90;;
53753;SDS011;39667;52.274;20.964;2022-12-10T12:37:08;34.20;;;21.00;;
53753;SDS011;39667;52.274;20.964;2022-12-10T12:39:46;31.10;;;19.80;;
53753;SDS011;39667;52.274;20.964;2022-12-10T12:45:03;32.10;;;19.20;;
53753;SDS011;39667;52.274;20.964;2022-12-10T12:50:38;33.30;;;19.80;;
53753;SDS011;39667;52.274;20.964;2022-12-10T12:53:14;29.20;;;19.50;;
53753;SDS011;39667;52.274;20.964;2022-12-10T13:01:06;31.40;;;20.20;;
53753;SDS011;39667;52.274;20.964;2022-12-10T13:03:43;30.50;;;19.50;;
53753;SDS011;39667;52.274;20.964;2022-12-10T13:06:15;34.80;;;22.30;;
53753;SDS011;39667;52.274;20.964;2022-12-10T13:08:47;32.60;;;21.40;;
53753;SDS011;39667;52.274;20.964;2022-12-10T13:11:16;32.20;;;21.30;;
53753;SDS011;39667;52.274;20.964;2022-12-10T13:37:36;33.30;;;22.50;;
53753;SDS011;39667;52.274;20.964;2022-12-10T13:40:13;33.80;;;22.50;;
53753;SDS011;39667;52.274;20.964;2022-12-10T13:42:43;32.90;;;22.70;;
53753;SDS011;39667;52.274;20.964;2022-12-10T13:45:34;31.90;;;20.70;;
53753;SDS011;39667;52.274;20.964;2022-12-10T13:56:28;31.70;;;20.90;;
53753;SDS011;39667;52.274;20.964;2022-12-10T14:01:40;30.30;;;20.70;;
53753;SDS011;39667;52.274;20.964;2022-12-10T14:07:11;28.20;;;19.90;;
53753;SDS011;39667;52.274;20.964;2022-12-10T14:09:46;30.90;;;20.50;;
53753;SDS011;39667;52.274;20.964;2022-12-10T14:12:18;25.70;;;18.90;;
53753;SDS011;39667;52.274;20.964;2022-12-10T14:15:01;31.80;;;21.00;;
53753;SDS011;39667;52.274;20.964;2022-12-10T14:17:32;28.50;;;18.80;;
53753;SDS011;39667;52.274;20.964;2022-12-10T14:20:03;27.30;;;19.80;;
53753;SDS011;39667;52.274;20.964;2022-12-10T14:22:37;24.90;;;19.40;;
53753;SDS011;39667;52.274;20.964;2022-12-10T14:25:13;28.30;;;19.90;;
53753;SDS011;39667;52.274;20.964;2022-12-10T14:27:43;29.20;;;21.50;;
53753;SDS011;39667;52.274;20.964;2022-12-10T14:30:17;27.50;;;20.50;;
53753;SDS011;39667;52.274;20.964;2022-12-10T14:32:46;31.80;;;21.60;;
53753;SDS011;39667;52.274;20.964;2022-12-10T14:35:14;29.30;;;21.30;;
53753;SDS011;39667;52.274;20.964;2022-12-10T14:37:51;31.30;;;21.80;;
53753;SDS011;39667;52.274;20.964;2022-12-10T14:42:52;33.00;;;23.20;;
53753;SDS011;39667;52.274;20.964;2022-12-10T14:45:26;32.20;;;22.80;;
53753;SDS011;39667;52.274;20.964;2022-12-10T14:48:02;31.10;;;21.30;;
53753;SDS011;39667;52.274;20.964;2022-12-10T14:50:34;28.80;;;21.10;;
53753;SDS011;39667;52.274;20.964;2022-12-10T14:53:05;28.30;;;21.80;;
53753;SDS011;39667;52.274;20.964;2022-12-10T14:55:37;31.80;;;23.70;;
53753;SDS011;39667;52.274;20.964;2022-12-10T14:58:04;32.90;;;22.30;;
53753;SDS011;39667;52.274;20.964;2022-12-10T15:00:35;29.90;;;22.30;;
53753;SDS011;39667;52.274;20.964;2022-12-10T15:03:07;29.80;;;23.10;;
53753;SDS011;39667;52.274;20.964;2022-12-10T15:05:36;29.10;;;21.40;;
53753;SDS011;39667;52.274;20.964;2022-12-10T15:08:11;29.00;;;22.50;;
53753;SDS011;39667;52.274;20.964;2022-12-10T15:10:43;25.00;;;20.40;;
53753;SDS011;39667;52.274;20.964;2022-12-10T15:14:01;29.40;;;20.80;;
53753;SDS011;39667;52.274;20.964;2022-12-10T15:16:05;26.80;;;20.30;;
53753;SDS011;39667;52.274;20.964;2022-12-10T15:18:41;28.90;;;21.40;;
53753;SDS011;39667;52.274;20.964;2022-12-10T15:21:10;29.10;;;21.00;;
53753;SDS011;39667;52.274;20.964;2022-12-10T15:23:43;26.80;;;20.50;;
53753;SDS011;39667;52.274;20.964;2022-12-10T15:28:43;27.90;;;21.30;;
53753;SDS011;39667;52.274;20.964;2022-12-10T15:33:59;27.00;;;21.10;;
53753;SDS011;39667;52.274;20.964;2022-12-10T15:39:05;27.10;;;20.70;;
53753;SDS011;39667;52.274;20.964;2022-12-10T15:41:43;30.30;;;22.80;;
53753;SDS011;39667;52.274;20.964;2022-12-10T15:49:40;27.00;;;21.30;;
53753;SDS011;39667;52.274;20.964;2022-12-10T15:52:11;28.20;;;22.00;;
53753;SDS011;39667;52.274;20.964;2022-12-10T15:54:49;34.10;;;21.90;;
53753;SDS011;39667;52.274;20.964;2022-12-10T15:59:43;25.50;;;19.90;;
53753;SDS011;39667;52.274;20.964;2022-12-10T16:05:12;30.10;;;21.90;;
53753;SDS011;39667;52.274;20.964;2022-12-10T16:07:40;26.80;;;20.80;;
53753;SDS011;39667;52.274;20.964;2022-12-10T16:10:08;26.30;;;21.00;;
53753;SDS011;39667;52.274;20.964;2022-12-10T16:12:37;25.70;;;20.10;;
53753;SDS011;39667;52.274;20.964;2022-12-10T16:15:07;26.40;;;20.90;;
53753;SDS011;39667;52.274;20.964;2022-12-10T16:17:40;25.90;;;20.20;;
53753;SDS011;39667;52.274;20.964;2022-12-10T16:20:17;25.40;;;21.50;;
53753;SDS011;39667;52.274;20.964;2022-12-10T16:22:49;29.40;;;22.40;;
53753;SDS011;39667;52.274;20.964;2022-12-10T16:25:16;28.30;;;21.60;;
53753;SDS011;39667;52.274;20.964;2022-12-10T16:27:43;25.60;;;21.30;;
53753;SDS011;39667;52.274;20.964;2022-12-10T16:30:13;25.50;;;22.20;;
53753;SDS011;39667;52.274;20.964;2022-12-10T16:32:41;27.10;;;21.10;;
53753;SDS011;39667;52.274;20.964;2022-12-10T16:35:07;25.40;;;20.30;;
53753;SDS011;39667;52.274;20.964;2022-12-10T16:37:34;23.50;;;19.40;;
53753;SDS011;39667;52.274;20.964;2022-12-10T16:40:00;25.30;;;20.70;;
53753;SDS011;39667;52.274;20.964;2022-12-10T16:42:27;26.80;;;20.90;;
53753;SDS011;39667;52.274;20.964;2022-12-10T16:44:54;24.50;;;19.50;;
53753;SDS011;39667;52.274;20.964;2022-12-10T16:47:21;28.50;;;21.10;;
53753;SDS011;39667;52.274;20.964;2022-12-10T16:49:50;24.50;;;21.10;;
53753;SDS011;39667;52.274;20.964;2022-12-10T16:52:17;25.60;;;20.50;;
53753;SDS011;39667;52.274;20.964;2022-12-10T16:54:48;27.50;;;21.80;;
53753;SDS011;39667;52.274;20.964;2022-12-10T16:57:16;27.80;;;21.40;;
53753;SDS011;39667;52.274;20.964;2022-12-10T16:59:45;27.90;;;21.80;;
53753;SDS011;39667;52.274;20.964;2022-12-10T17:02:16;27.60;;;20.70;;
53753;SDS011;39667;52.274;20.964;2022-12-10T17:04:54;27.00;;;21.50;;
53753;SDS011;39667;52.274;20.964;2022-12-10T17:07:21;26.40;;;20.80;;